Time;durP1;ratioP1;P1;durP2;ratioP2;P2;SDS_P1;SDS_P2;PMS_P1;PMS_P2;Temp;Humidity;BMP_temperature;BMP_pressure;BME280_temperature;BME280_humidity;BME280_pressure;Samples;Min_cycle;Max_cycle;Signal;HPM_P1;HPM_P2
2024/01/03 00:01:01;;;;;;;5.75;3.13;;;;;;;;;;4986459;28;20038;-46
2024/01/03 00:03:27;;;;;;;7.35;3.13;;;;;;;;;;4990615;28;20046;-46
2024/01/03 00:05:53;;;;;;;9.48;3.47;;;;;;;;;;4990647;28;20559;-46
2024/01/03 00:08:27;;;;;;;8.13;3.40;;;;;;;;;;5002297;28;20048;-47
2024/01/03 00:10:56;;;;;;;5.03;2.90;;;;;;;;;;4993185;28;20030;-47
2024/01/03 00:13:34;;;;;;;5.97;3.05;;;;;;;;;;4984627;28;20500;-46
2024/01/03 00:15:59;;;;;;;7.45;3.00;;;;;;;;;;4989945;28;20026;-48
2024/01/03 00:18:51;;;;;;;7.72;2.67;;;;;;;;;;4986644;28;20097;-48
2024/01/03 00:21:31;;;;;;;8.02;3.75;;;;;;;;;;4983298;28;20049;-50
2024/01/03 00:24:07;;;;;;;6.22;3.28;;;;;;;;;;4993954;28;20048;-49
2024/01/03 00:26:34;;;;;;;4.93;3.38;;;;;;;;;;4997560;28;20507;-50
2024/01/03 00:29:01;;;;;;;5.85;4.20;;;;;;;;;;4988922;28;20064;-50
2024/01/03 00:31:43;;;;;;;5.50;3.15;;;;;;;;;;4991203;28;20031;-50
2024/01/03 00:34:37;;;;;;;8.27;3.47;;;;;;;;;;4992111;28;20520;-46
2024/01/03 00:37:26;;;;;;;4.85;3.58;;;;;;;;;;4989117;28;20053;-49
2024/01/03 00:39:55;;;;;;;6.03;3.83;;;;;;;;;;4991486;28;20039;-50
2024/01/03 00:42:21;;;;;;;3.60;2.55;;;;;;;;;;4992216;28;20018;-49
2024/01/03 00:44:47;;;;;;;3.58;1.98;;;;;;;;;;4983135;28;20038;-48
2024/01/03 00:47:13;;;;;;;3.50;2.78;;;;;;;;;;4985578;28;20061;-50
2024/01/03 00:49:38;;;;;;;7.55;3.70;;;;;;;;;;4987200;28;20042;-49
2024/01/03 00:52:05;;;;;;;7.85;5.32;;;;;;;;;;4989620;28;20076;-48
2024/01/03 00:54:30;;;;;;;10.55;5.43;;;;;;;;;;4986113;28;20046;-47
2024/01/03 00:56:59;;;;;;;12.85;5.75;;;;;;;;;;4969098;28;20041;-49
2024/01/03 00:59:25;;;;;;;6.85;3.63;;;;;;;;;;4984906;28;20039;-45
2024/01/03 01:01:51;;;;;;;6.13;2.72;;;;;;;;;;4990901;28;20030;-52
2024/01/03 01:04:17;;;;;;;12.48;7.53;;;;;;;;;;4987523;28;20033;-49
2024/01/03 01:06:42;;;;;;;8.90;4.80;;;;;;;;;;4977870;28;20118;-50
2024/01/03 01:09:08;;;;;;;7.38;2.97;;;;;;;;;;4972742;28;20043;-48
2024/01/03 01:11:34;;;;;;;6.13;2.22;;;;;;;;;;4989874;28;20522;-49
2024/01/03 01:14:00;;;;;;;3.42;1.98;;;;;;;;;;4999691;28;20038;-47
2024/01/03 01:16:25;;;;;;;5.20;1.80;;;;;;;;;;4991199;28;20057;-50
2024/01/03 01:18:51;;;;;;;5.88;2.15;;;;;;;;;;5000826;28;20045;-51
2024/01/03 01:21:16;;;;;;;5.68;1.75;;;;;;;;;;4991807;28;20025;-50
2024/01/03 01:23:42;;;;;;;4.90;2.10;;;;;;;;;;4990631;28;20054;-50
2024/01/03 01:26:10;;;;;;;4.65;2.92;;;;;;;;;;4988265;28;20022;-51
2024/01/03 01:28:36;;;;;;;6.38;2.00;;;;;;;;;;4991334;28;20074;-49
2024/01/03 01:31:02;;;;;;;4.90;2.15;;;;;;;;;;4984455;28;20026;-50
2024/01/03 01:33:27;;;;;;;4.72;3.13;;;;;;;;;;4992993;28;20622;-52
2024/01/03 01:35:53;;;;;;;3.78;2.08;;;;;;;;;;4984566;28;20022;-51
2024/01/03 01:38:18;;;;;;;4.85;2.70;;;;;;;;;;4990033;28;20030;-51
2024/01/03 01:40:48;;;;;;;4.63;2.38;;;;;;;;;;4992554;28;20027;-52
2024/01/03 01:43:14;;;;;;;4.13;1.73;;;;;;;;;;5003390;28;20052;-52
2024/01/03 01:45:39;;;;;;;6.65;3.75;;;;;;;;;;4990579;28;20102;-50
2024/01/03 01:48:06;;;;;;;7.60;3.17;;;;;;;;;;4980630;28;20065;-51
2024/01/03 01:50:31;;;;;;;5.57;3.38;;;;;;;;;;4991765;28;20112;-45
2024/01/03 01:52:58;;;;;;;4.55;2.08;;;;;;;;;;4988106;28;20082;-47
2024/01/03 01:55:24;;;;;;;4.22;2.17;;;;;;;;;;5002966;28;20110;-50
2024/01/03 01:57:51;;;;;;;5.55;2.40;;;;;;;;;;4993315;28;20508;-51
2024/01/03 02:00:17;;;;;;;4.20;1.95;;;;;;;;;;4998132;28;20436;-51
2024/01/03 02:02:46;;;;;;;3.78;1.55;;;;;;;;;;4988233;28;20026;-51
2024/01/03 02:05:13;;;;;;;5.30;2.75;;;;;;;;;;4984557;28;20034;-46
2024/01/03 02:07:39;;;;;;;4.65;2.15;;;;;;;;;;4981804;28;20038;-52
2024/01/03 02:10:05;;;;;;;3.47;2.42;;;;;;;;;;4985277;28;20034;-47
2024/01/03 02:12:30;;;;;;;3.72;2.28;;;;;;;;;;4987056;28;20046;-48
2024/01/03 02:14:56;;;;;;;3.47;1.88;;;;;;;;;;4998603;28;20034;-49
2024/01/03 02:17:22;;;;;;;6.38;3.20;;;;;;;;;;4984247;28;20038;-51
2024/01/03 02:19:48;;;;;;;5.95;2.78;;;;;;;;;;4984313;28;20513;-48
2024/01/03 02:22:13;;;;;;;8.52;3.08;;;;;;;;;;4976659;28;20109;-49
2024/01/03 02:24:38;;;;;;;8.88;3.60;;;;;;;;;;5000935;28;20081;-51
2024/01/03 02:27:04;;;;;;;10.20;5.07;;;;;;;;;;4984803;28;20074;-51
2024/01/03 02:29:29;;;;;;;9.57;3.55;;;;;;;;;;4980736;28;20035;-53
2024/01/03 02:31:55;;;;;;;7.97;3.88;;;;;;;;;;4991475;28;20140;-50
2024/01/03 02:34:20;;;;;;;8.73;4.32;;;;;;;;;;4973302;28;20399;-47
2024/01/03 02:36:51;;;;;;;5.70;2.95;;;;;;;;;;4988506;28;20171;-47
2024/01/03 02:39:16;;;;;;;6.70;3.35;;;;;;;;;;4971414;28;20117;-49
2024/01/03 02:41:41;;;;;;;8.80;4.13;;;;;;;;;;4984044;28;20059;-47
2024/01/03 02:44:07;;;;;;;5.75;3.42;;;;;;;;;;4984859;28;20111;-50
2024/01/03 02:46:32;;;;;;;4.90;2.42;;;;;;;;;;4991003;28;20111;-49
2024/01/03 02:48:58;;;;;;;6.80;4.07;;;;;;;;;;4984810;28;20070;-51
2024/01/03 02:51:23;;;;;;;7.30;3.08;;;;;;;;;;4991409;28;20069;-50
2024/01/03 02:53:49;;;;;;;7.25;3.83;;;;;;;;;;4993580;28;20447;-52
2024/01/03 02:56:15;;;;;;;5.15;3.53;;;;;;;;;;4986856;28;20102;-50
2024/01/03 02:58:40;;;;;;;4.93;2.90;;;;;;;;;;4978112;28;20034;-52
2024/01/03 03:01:06;;;;;;;6.18;2.67;;;;;;;;;;4989308;28;20025;-50
2024/01/03 03:03:31;;;;;;;5.68;2.88;;;;;;;;;;4968488;28;20027;-48
2024/01/03 03:05:57;;;;;;;5.50;3.22;;;;;;;;;;4978030;28;20656;-49
2024/01/03 03:08:22;;;;;;;7.95;4.45;;;;;;;;;;4991667;28;20050;-48
2024/01/03 03:10:48;;;;;;;7.65;3.97;;;;;;;;;;4999091;28;20033;-49
2024/01/03 03:13:13;;;;;;;9.75;4.13;;;;;;;;;;4995361;28;20061;-51
2024/01/03 03:15:39;;;;;;;7.68;5.43;;;;;;;;;;4992753;28;20030;-49
2024/01/03 03:18:06;;;;;;;8.50;6.00;;;;;;;;;;4976879;28;20022;-52
2024/01/03 03:20:32;;;;;;;8.88;4.25;;;;;;;;;;4991749;28;20114;-50
2024/01/03 03:22:58;;;;;;;12.93;4.95;;;;;;;;;;4993015;28;20611;-49
2024/01/03 03:25:23;;;;;;;9.98;4.57;;;;;;;;;;5001859;28;20053;-47
2024/01/03 03:27:48;;;;;;;6.95;3.33;;;;;;;;;;4988775;28;20033;-51
2024/01/03 03:30:14;;;;;;;8.00;4.72;;;;;;;;;;4977113;28;20044;-48
2024/01/03 03:32:44;;;;;;;7.63;4.38;;;;;;;;;;4998827;28;20538;-49
2024/01/03 03:35:10;;;;;;;5.72;5.13;;;;;;;;;;4993965;28;20421;-50
2024/01/03 03:37:35;;;;;;;10.13;4.78;;;;;;;;;;4993889;28;20033;-47
2024/01/03 03:40:01;;;;;;;6.80;3.85;;;;;;;;;;4987880;28;20093;-46
2024/01/03 03:42:26;;;;;;;9.85;4.47;;;;;;;;;;4988362;28;20019;-46
2024/01/03 03:44:53;;;;;;;12.35;5.30;;;;;;;;;;4977322;28;20141;-50
2024/01/03 03:47:19;;;;;;;12.98;7.82;;;;;;;;;;4993904;28;20034;-47
2024/01/03 03:49:44;;;;;;;11.50;7.57;;;;;;;;;;4993179;28;20042;-49
2024/01/03 03:52:10;;;;;;;14.48;5.95;;;;;;;;;;4997048;28;20038;-49
2024/01/03 03:54:35;;;;;;;11.90;5.60;;;;;;;;;;4988149;28;20035;-50
2024/01/03 03:57:00;;;;;;;7.43;5.10;;;;;;;;;;5001431;28;20134;-47
2024/01/03 03:59:26;;;;;;;10.20;4.82;;;;;;;;;;4988243;28;20062;-50
2024/01/03 04:01:51;;;;;;;9.48;4.88;;;;;;;;;;4993426;28;20591;-52
2024/01/03 04:04:17;;;;;;;10.20;4.18;;;;;;;;;;4996072;28;20046;-47
2024/01/03 04:06:43;;;;;;;5.40;3.35;;;;;;;;;;4985866;28;20790;-48
2024/01/03 04:09:11;;;;;;;7.18;3.58;;;;;;;;;;4980487;28;20037;-47
2024/01/03 04:11:43;;;;;;;7.05;3.92;;;;;;;;;;4989318;28;20121;-50
2024/01/03 04:14:09;;;;;;;5.32;3.10;;;;;;;;;;4991307;28;20042;-46
2024/01/03 04:16:35;;;;;;;8.35;3.80;;;;;;;;;;4981987;28;20074;-49
2024/01/03 04:19:01;;;;;;;5.90;2.70;;;;;;;;;;4981124;28;20125;-49
2024/01/03 04:21:30;;;;;;;6.22;3.17;;;;;;;;;;4986733;28;20102;-50
2024/01/03 04:23:56;;;;;;;5.45;2.58;;;;;;;;;;4992352;28;20038;-46
2024/01/03 04:26:25;;;;;;;7.25;3.33;;;;;;;;;;4987675;28;20031;-48
2024/01/03 04:28:50;;;;;;;5.72;3.22;;;;;;;;;;4986084;28;20030;-47
2024/01/03 04:31:16;;;;;;;7.88;3.88;;;;;;;;;;4995604;28;20392;-46
2024/01/03 04:33:41;;;;;;;5.20;2.42;;;;;;;;;;4986311;28;20042;-48
2024/01/03 04:36:09;;;;;;;2.97;1.85;;;;;;;;;;4996898;28;20109;-46
2024/01/03 04:38:35;;;;;;;4.30;1.90;;;;;;;;;;4974234;28;20034;-48
2024/01/03 04:41:00;;;;;;;3.97;2.25;;;;;;;;;;4991259;28;20487;-51
2024/01/03 04:43:26;;;;;;;5.43;2.38;;;;;;;;;;4974953;28;20039;-48
2024/01/03 04:45:51;;;;;;;3.63;2.17;;;;;;;;;;4963051;28;20050;-48
2024/01/03 04:48:16;;;;;;;4.65;2.13;;;;;;;;;;4981775;28;20049;-49
2024/01/03 04:50:42;;;;;;;4.47;2.15;;;;;;;;;;4987785;28;20504;-50
2024/01/03 04:53:07;;;;;;;5.80;2.20;;;;;;;;;;4986965;28;20042;-51
2024/01/03 04:55:33;;;;;;;6.57;2.30;;;;;;;;;;4990744;28;20080;-50
2024/01/03 04:57:59;;;;;;;4.32;1.88;;;;;;;;;;4992782;28;20029;-50
2024/01/03 05:00:25;;;;;;;4.97;2.80;;;;;;;;;;4979816;28;20023;-47
2024/01/03 05:02:51;;;;;;;4.82;2.70;;;;;;;;;;4992626;28;20026;-53
2024/01/03 05:05:16;;;;;;;5.88;3.13;;;;;;;;;;4987846;28;20050;-50
2024/01/03 05:07:42;;;;;;;5.18;2.40;;;;;;;;;;4984344;28;20027;-47
2024/01/03 05:10:10;;;;;;;4.82;2.38;;;;;;;;;;4988839;28;20043;-48
2024/01/03 05:12:37;;;;;;;6.18;3.03;;;;;;;;;;4988001;28;20511;-48
2024/01/03 05:15:06;;;;;;;5.00;3.30;;;;;;;;;;4994415;28;20117;-50
2024/01/03 05:17:31;;;;;;;6.82;4.18;;;;;;;;;;4982373;28;20034;-48
2024/01/03 05:19:57;;;;;;;6.95;3.90;;;;;;;;;;4980131;28;20042;-48
2024/01/03 05:22:22;;;;;;;3.85;2.90;;;;;;;;;;4984592;28;20521;-46
2024/01/03 05:24:48;;;;;;;5.65;3.10;;;;;;;;;;4995729;28;20030;-51
2024/01/03 05:27:13;;;;;;;6.82;3.83;;;;;;;;;;4985382;28;20038;-51
2024/01/03 05:29:38;;;;;;;7.15;4.10;;;;;;;;;;4993579;28;20110;-48
2024/01/03 05:32:05;;;;;;;6.43;4.30;;;;;;;;;;4984529;28;20520;-47
2024/01/03 05:34:30;;;;;;;6.55;3.45;;;;;;;;;;4985812;28;20038;-48
2024/01/03 05:36:56;;;;;;;6.82;3.92;;;;;;;;;;4990108;28;20428;-50
2024/01/03 05:39:21;;;;;;;8.35;4.03;;;;;;;;;;4986535;28;20065;-50
2024/01/03 05:41:47;;;;;;;7.35;4.85;;;;;;;;;;4988454;28;20109;-50
2024/01/03 05:44:13;;;;;;;6.85;3.60;;;;;;;;;;4985716;28;20053;-47
2024/01/03 05:46:39;;;;;;;7.05;3.90;;;;;;;;;;4983442;28;20030;-48
2024/01/03 05:49:05;;;;;;;5.35;3.55;;;;;;;;;;4978474;28;20043;-49
2024/01/03 05:51:31;;;;;;;8.07;3.25;;;;;;;;;;4988472;28;20493;-47
2024/01/03 05:53:56;;;;;;;6.18;3.40;;;;;;;;;;4991847;28;20069;-48
2024/01/03 05:56:22;;;;;;;7.00;3.35;;;;;;;;;;4989823;28;20628;-49
2024/01/03 05:58:47;;;;;;;27.05;10.32;;;;;;;;;;4989846;28;20054;-49
2024/01/03 06:01:13;;;;;;;31.90;13.75;;;;;;;;;;4992465;28;20033;-48
2024/01/03 06:03:38;;;;;;;14.93;8.23;;;;;;;;;;4988872;28;20141;-46
2024/01/03 06:06:04;;;;;;;15.95;8.48;;;;;;;;;;4969220;28;20049;-47
2024/01/03 06:08:29;;;;;;;15.43;8.80;;;;;;;;;;4993337;28;20117;-48
2024/01/03 06:10:55;;;;;;;20.92;8.90;;;;;;;;;;4990648;28;20026;-52
2024/01/03 06:13:24;;;;;;;10.88;6.10;;;;;;;;;;4981991;28;20053;-48
2024/01/03 06:15:51;;;;;;;8.25;4.43;;;;;;;;;;4988300;28;20034;-50
2024/01/03 06:18:16;;;;;;;7.85;4.43;;;;;;;;;;4986126;28;20065;-50
2024/01/03 06:20:42;;;;;;;8.70;4.68;;;;;;;;;;4994943;28;20026;-47
2024/01/03 06:23:08;;;;;;;12.50;5.53;;;;;;;;;;4997810;28;20026;-48
2024/01/03 06:25:33;;;;;;;8.85;5.13;;;;;;;;;;4983018;28;20030;-48
2024/01/03 06:27:58;;;;;;;11.32;5.72;;;;;;;;;;4987525;28;20039;-46
2024/01/03 06:30:24;;;;;;;8.63;5.20;;;;;;;;;;4987875;28;20077;-49
2024/01/03 06:32:49;;;;;;;9.43;5.90;;;;;;;;;;4986736;28;20381;-47
2024/01/03 06:35:15;;;;;;;10.68;4.78;;;;;;;;;;4991836;28;20491;-49
2024/01/03 06:37:41;;;;;;;8.02;5.68;;;;;;;;;;4998919;28;20053;-48
2024/01/03 06:40:08;;;;;;;9.48;5.18;;;;;;;;;;4993759;28;20034;-48
2024/01/03 06:42:33;;;;;;;9.38;5.63;;;;;;;;;;4989482;28;20106;-51
2024/01/03 06:44:58;;;;;;;8.90;4.88;;;;;;;;;;4994019;28;20077;-52
2024/01/03 06:47:24;;;;;;;7.90;4.88;;;;;;;;;;4991567;28;20029;-46
2024/01/03 06:49:49;;;;;;;8.00;6.15;;;;;;;;;;4987614;28;20030;-49
2024/01/03 06:52:15;;;;;;;7.95;6.47;;;;;;;;;;4995267;28;20038;-49
2024/01/03 06:54:40;;;;;;;8.85;5.28;;;;;;;;;;4986826;28;20039;-49
2024/01/03 06:57:05;;;;;;;7.82;6.90;;;;;;;;;;4995882;28;20089;-46
2024/01/03 06:59:37;;;;;;;11.77;5.32;;;;;;;;;;4993101;28;20035;-45
2024/01/03 07:02:03;;;;;;;7.32;4.05;;;;;;;;;;4984731;28;20030;-50
2024/01/03 07:04:28;;;;;;;9.10;5.10;;;;;;;;;;4989801;28;20074;-48
2024/01/03 07:06:54;;;;;;;8.40;6.32;;;;;;;;;;4988591;28;20031;-47
2024/01/03 07:09:20;;;;;;;36.72;22.23;;;;;;;;;;4991665;28;20038;-46
2024/01/03 07:11:45;;;;;;;32.65;21.85;;;;;;;;;;4997238;28;20034;-49
2024/01/03 07:14:13;;;;;;;17.30;11.25;;;;;;;;;;4997270;28;20496;-46
2024/01/03 07:16:39;;;;;;;19.88;10.23;;;;;;;;;;4996751;28;20033;-49
2024/01/03 07:19:04;;;;;;;16.05;9.68;;;;;;;;;;4993807;28;20034;-48
2024/01/03 07:21:30;;;;;;;14.02;7.35;;;;;;;;;;4991668;28;20069;-52
2024/01/03 07:23:55;;;;;;;15.15;8.20;;;;;;;;;;4982485;28;20039;-52
2024/01/03 07:26:21;;;;;;;13.85;7.53;;;;;;;;;;4979524;28;20150;-48
2024/01/03 07:28:46;;;;;;;14.50;9.23;;;;;;;;;;4974960;28;20497;-47
2024/01/03 07:31:12;;;;;;;13.80;9.68;;;;;;;;;;4975283;28;20117;-49
2024/01/03 07:33:40;;;;;;;11.23;7.78;;;;;;;;;;4977165;28;20053;-50
2024/01/03 07:36:05;;;;;;;12.20;9.30;;;;;;;;;;4999623;28;20429;-47
2024/01/03 07:38:31;;;;;;;12.35;7.97;;;;;;;;;;4982653;28;20058;-49
2024/01/03 07:40:56;;;;;;;10.95;9.80;;;;;;;;;;4987507;28;20393;-49
2024/01/03 07:43:22;;;;;;;10.23;7.70;;;;;;;;;;4986923;28;20526;-48
2024/01/03 07:45:47;;;;;;;12.48;8.05;;;;;;;;;;4986623;28;20065;-47
2024/01/03 07:48:12;;;;;;;12.18;8.82;;;;;;;;;;4974956;28;20027;-49
2024/01/03 07:50:38;;;;;;;12.27;7.25;;;;;;;;;;4987693;28;20030;-47
2024/01/03 07:53:05;;;;;;;10.73;5.47;;;;;;;;;;4986082;28;20031;-51
2024/01/03 07:55:31;;;;;;;5.93;4.28;;;;;;;;;;4987491;28;20026;-51
2024/01/03 07:57:56;;;;;;;7.00;4.78;;;;;;;;;;4988508;28;20469;-47
2024/01/03 08:00:21;;;;;;;8.55;5.85;;;;;;;;;;4968102;28;20739;-49
2024/01/03 08:02:47;;;;;;;7.82;4.35;;;;;;;;;;4966495;28;20019;-49
2024/01/03 08:05:12;;;;;;;6.40;4.35;;;;;;;;;;4991600;28;20137;-50
2024/01/03 08:07:38;;;;;;;10.23;5.82;;;;;;;;;;4999231;28;20672;-49
2024/01/03 08:10:04;;;;;;;8.95;5.38;;;;;;;;;;4988074;28;20038;-49
2024/01/03 08:12:29;;;;;;;8.48;4.95;;;;;;;;;;4989135;28;20057;-51
2024/01/03 08:14:54;;;;;;;11.82;6.10;;;;;;;;;;4999637;28;20034;-49
2024/01/03 08:17:20;;;;;;;13.30;6.18;;;;;;;;;;4988445;28;20030;-48
2024/01/03 08:19:45;;;;;;;12.70;6.63;;;;;;;;;;4985046;28;20035;-47
2024/01/03 08:22:11;;;;;;;10.75;7.07;;;;;;;;;;4972759;28;20548;-48
2024/01/03 08:24:36;;;;;;;10.05;7.60;;;;;;;;;;4988688;28;20522;-52
2024/01/03 08:27:02;;;;;;;14.35;7.88;;;;;;;;;;5007718;28;20026;-49
2024/01/03 08:29:30;;;;;;;8.93;8.02;;;;;;;;;;4991302;28;20039;-49
2024/01/03 08:31:55;;;;;;;8.75;7.10;;;;;;;;;;4988571;28;20162;-49
2024/01/03 08:34:21;;;;;;;9.23;5.78;;;;;;;;;;4988539;28;20133;-49
2024/01/03 08:36:46;;;;;;;12.40;5.97;;;;;;;;;;5006883;28;20023;-49
2024/01/03 08:39:12;;;;;;;15.57;7.63;;;;;;;;;;4986816;28;20058;-49
2024/01/03 08:41:37;;;;;;;11.15;7.65;;;;;;;;;;4986560;28;20023;-48
2024/01/03 08:44:05;;;;;;;13.43;8.15;;;;;;;;;;4985746;28;20075;-49
2024/01/03 08:46:34;;;;;;;13.48;7.20;;;;;;;;;;4980564;28;20037;-48
2024/01/03 08:49:02;;;;;;;9.15;5.95;;;;;;;;;;4989034;28;20042;-50
2024/01/03 08:51:27;;;;;;;11.40;5.90;;;;;;;;;;4993665;28;20073;-49
2024/01/03 08:53:53;;;;;;;6.97;5.20;;;;;;;;;;4990147;28;20566;-50
2024/01/03 08:56:19;;;;;;;11.27;5.80;;;;;;;;;;4990468;28;20132;-49
2024/01/03 08:58:46;;;;;;;12.63;6.28;;;;;;;;;;4994254;28;20049;-50
2024/01/03 09:01:22;;;;;;;9.77;6.07;;;;;;;;;;4989602;28;20054;-48
2024/01/03 09:03:48;;;;;;;6.68;5.70;;;;;;;;;;5009441;28;20054;-47
2024/01/03 09:06:17;;;;;;;10.82;5.45;;;;;;;;;;4988535;28;20030;-46
2024/01/03 09:08:43;;;;;;;10.90;7.93;;;;;;;;;;4986866;28;20061;-47
2024/01/03 09:11:12;;;;;;;13.57;7.88;;;;;;;;;;5004085;28;20060;-47
2024/01/03 09:13:39;;;;;;;9.02;5.80;;;;;;;;;;4983229;28;20065;-48
2024/01/03 09:16:09;;;;;;;12.02;9.43;;;;;;;;;;4981946;28;20374;-53
2024/01/03 09:18:34;;;;;;;11.50;7.18;;;;;;;;;;4987546;28;20681;-49
2024/01/03 09:21:06;;;;;;;10.70;7.40;;;;;;;;;;4982635;28;20057;-49
2024/01/03 09:23:31;;;;;;;13.25;6.32;;;;;;;;;;4971484;28;20038;-50
2024/01/03 09:25:57;;;;;;;9.02;5.93;;;;;;;;;;4987607;28;20503;-49
2024/01/03 09:28:23;;;;;;;11.43;5.47;;;;;;;;;;4969827;28;20123;-52
2024/01/03 09:30:49;;;;;;;12.02;6.35;;;;;;;;;;4987665;28;20030;-48
2024/01/03 09:33:14;;;;;;;10.05;5.38;;;;;;;;;;4981523;28;20550;-48
2024/01/03 09:35:40;;;;;;;8.48;6.20;;;;;;;;;;4990530;28;20556;-47
2024/01/03 09:38:05;;;;;;;13.55;8.65;;;;;;;;;;4997822;28;20024;-51
2024/01/03 09:40:33;;;;;;;21.52;12.07;;;;;;;;;;4988645;28;20073;-48
2024/01/03 09:43:01;;;;;;;23.48;11.43;;;;;;;;;;4985498;28;20042;-49
2024/01/03 09:45:26;;;;;;;17.23;10.18;;;;;;;;;;4986752;28;20044;-48
2024/01/03 09:47:52;;;;;;;19.75;10.50;;;;;;;;;;4984340;28;20054;-49
2024/01/03 09:50:17;;;;;;;18.77;11.60;;;;;;;;;;4994032;28;20435;-48
2024/01/03 09:52:44;;;;;;;15.70;11.40;;;;;;;;;;4984685;28;20047;-46
2024/01/03 09:55:09;;;;;;;22.20;12.70;;;;;;;;;;4985156;28;20043;-47
2024/01/03 09:57:38;;;;;;;25.52;15.30;;;;;;;;;;4987295;28;20037;-45
2024/01/03 10:00:05;;;;;;;21.92;12.98;;;;;;;;;;4966018;28;20535;-50
2024/01/03 10:02:30;;;;;;;15.20;9.05;;;;;;;;;;4996926;28;20033;-47
2024/01/03 10:04:56;;;;;;;14.88;10.18;;;;;;;;;;4986950;28;20074;-50
2024/01/03 10:07:35;;;;;;;15.85;10.93;;;;;;;;;;4989098;28;20051;-48
2024/01/03 10:10:02;;;;;;;12.52;7.88;;;;;;;;;;5001940;28;20046;-47
2024/01/03 10:12:34;;;;;;;14.40;10.18;;;;;;;;;;4972402;28;20027;-48
2024/01/03 10:15:19;;;;;;;16.25;9.00;;;;;;;;;;4992159;28;20333;-45
2024/01/03 10:17:48;;;;;;;19.13;10.50;;;;;;;;;;4984466;28;20062;-49
2024/01/03 10:20:23;;;;;;;18.38;10.43;;;;;;;;;;4988873;28;20034;-49
2024/01/03 10:22:48;;;;;;;;;;;;;;;;;;4989970;28;20105;-48
2024/01/03 10:25:16;;;;;;;17.50;9.27;;;;;;;;;;4982860;28;19981;-48
2024/01/03 10:27:42;;;;;;;18.77;10.65;;;;;;;;;;4996470;28;20037;-49
2024/01/03 10:30:14;;;;;;;17.60;10.65;;;;;;;;;;4974078;28;20523;-50
2024/01/03 10:32:40;;;;;;;27.95;18.80;;;;;;;;;;4993339;28;20452;-49
2024/01/03 10:35:15;;;;;;;21.13;12.95;;;;;;;;;;4994038;28;20038;-51
2024/01/03 10:37:41;;;;;;;17.45;10.38;;;;;;;;;;4996971;28;20550;-49
2024/01/03 10:40:08;;;;;;;17.75;10.38;;;;;;;;;;4993710;28;20039;-49
2024/01/03 10:42:35;;;;;;;15.23;9.70;;;;;;;;;;4986609;28;20030;-53
2024/01/03 10:45:01;;;;;;;13.90;9.23;;;;;;;;;;4991571;28;20034;-51
2024/01/03 10:47:27;;;;;;;11.57;8.27;;;;;;;;;;4988521;28;20118;-48
2024/01/03 10:49:52;;;;;;;13.98;7.70;;;;;;;;;;4991635;28;20046;-52
2024/01/03 10:52:21;;;;;;;15.00;8.68;;;;;;;;;;4990500;28;20097;-47
2024/01/03 10:54:52;;;;;;;15.50;8.57;;;;;;;;;;4989859;28;20042;-51
2024/01/03 10:57:20;;;;;;;13.82;8.68;;;;;;;;;;4995406;28;20042;-49
2024/01/03 10:59:55;;;;;;;15.52;8.70;;;;;;;;;;4989662;28;20043;-53
2024/01/03 11:02:29;;;;;;;13.15;8.23;;;;;;;;;;4994379;28;20030;-49
2024/01/03 11:05:13;;;;;;;13.43;8.63;;;;;;;;;;4968585;28;20035;-46
2024/01/03 11:07:47;;;;;;;18.13;9.88;;;;;;;;;;4989225;28;20066;-48
2024/01/03 11:10:54;;;;;;;13.27;9.73;;;;;;;;;;4977038;28;20416;-46
2024/01/03 11:13:33;;;;;;;14.90;9.32;;;;;;;;;;4992649;28;20701;-50
2024/01/03 11:16:00;;;;;;;13.90;8.27;;;;;;;;;;4981624;28;20472;-51
2024/01/03 11:18:41;;;;;;;13.00;6.63;;;;;;;;;;4989896;28;20041;-51
2024/01/03 11:21:26;;;;;;;11.57;8.25;;;;;;;;;;4988470;28;20030;-48
2024/01/03 11:23:52;;;;;;;12.02;6.78;;;;;;;;;;4993118;28;20101;-48
2024/01/03 11:26:18;;;;;;;9.02;6.57;;;;;;;;;;4984956;28;20408;-45
2024/01/03 11:28:49;;;;;;;10.55;6.35;;;;;;;;;;4994069;28;20046;-46
2024/01/03 11:31:53;;;;;;;9.88;5.97;;;;;;;;;;4991035;28;20069;-51
2024/01/03 11:34:42;;;;;;;9.50;6.13;;;;;;;;;;4991455;28;20584;-48
2024/01/03 11:37:16;;;;;;;5.75;5.15;;;;;;;;;;4992881;28;20538;-49
2024/01/03 11:39:45;;;;;;;10.77;6.53;;;;;;;;;;4986707;28;20038;-49
2024/01/03 11:42:21;;;;;;;8.63;5.20;;;;;;;;;;4985387;28;20018;-48
2024/01/03 11:45:04;;;;;;;10.88;5.18;;;;;;;;;;4998034;28;20039;-50
2024/01/03 11:47:31;;;;;;;8.27;4.72;;;;;;;;;;4995654;28;20045;-51
2024/01/03 11:49:57;;;;;;;8.50;5.00;;;;;;;;;;4997228;28;20026;-49
2024/01/03 11:52:24;;;;;;;9.88;6.65;;;;;;;;;;4992249;28;20043;-52
2024/01/03 11:55:01;;;;;;;8.20;5.18;;;;;;;;;;4984911;28;20038;-49
2024/01/03 11:57:27;;;;;;;7.65;6.03;;;;;;;;;;4985437;28;20018;-46
2024/01/03 12:00:02;;;;;;;8.95;5.47;;;;;;;;;;4990414;28;20115;-48
2024/01/03 12:02:27;;;;;;;;;;;;;;;;;;4997412;28;20037;-49
2024/01/03 12:05:00;;;;;;;8.48;4.75;;;;;;;;;;4987791;28;19922;-50
2024/01/03 12:07:28;;;;;;;9.48;5.95;;;;;;;;;;4991445;28;20507;-49
2024/01/03 12:09:55;;;;;;;9.00;6.00;;;;;;;;;;4989894;28;20092;-49
2024/01/03 12:12:20;;;;;;;10.88;6.28;;;;;;;;;;4981831;28;20030;-48
2024/01/03 12:14:55;;;;;;;7.68;3.78;;;;;;;;;;4996495;28;20529;-46
2024/01/03 12:17:28;;;;;;;;;;;;;;;;;;4983689;28;20019;-52
2024/01/03 12:20:14;;;;;;;6.53;3.97;;;;;;;;;;4986678;28;19981;-48
2024/01/03 12:22:40;;;;;;;5.65;3.83;;;;;;;;;;4979872;28;20169;-49
2024/01/03 12:25:06;;;;;;;10.15;6.07;;;;;;;;;;4991373;28;20031;-47
2024/01/03 12:27:35;;;;;;;9.98;5.70;;;;;;;;;;4980115;28;20157;-46
2024/01/03 12:30:10;;;;;;;;;;;;;;;;;;4980023;28;20049;-46
2024/01/03 12:32:36;;;;;;;6.50;4.88;;;;;;;;;;4989618;28;19922;-49
2024/01/03 12:35:01;;;;;;;8.18;5.68;;;;;;;;;;4989158;28;20042;-50
2024/01/03 12:37:28;;;;;;;8.00;4.82;;;;;;;;;;4977785;28;20035;-49
2024/01/03 12:39:54;;;;;;;9.02;4.60;;;;;;;;;;4988892;28;20037;-48
2024/01/03 12:42:19;;;;;;;9.98;4.53;;;;;;;;;;4984893;28;20026;-48
2024/01/03 12:44:45;;;;;;;9.63;4.93;;;;;;;;;;4977923;28;20086;-50
2024/01/03 12:47:11;;;;;;;7.35;4.05;;;;;;;;;;4989065;28;20030;-50
2024/01/03 12:49:40;;;;;;;5.00;3.50;;;;;;;;;;4988922;28;20046;-49
2024/01/03 12:52:07;;;;;;;9.60;3.90;;;;;;;;;;4992053;28;20058;-48
2024/01/03 12:54:36;;;;;;;9.48;5.40;;;;;;;;;;4987572;28;20595;-48
2024/01/03 12:57:06;;;;;;;9.77;4.40;;;;;;;;;;4991593;28;20033;-46
2024/01/03 12:59:32;;;;;;;7.43;5.18;;;;;;;;;;4986137;28;20046;-48
2024/01/03 13:01:57;;;;;;;8.55;4.90;;;;;;;;;;4980882;28;20031;-48
2024/01/03 13:04:23;;;;;;;7.70;4.63;;;;;;;;;;5009091;28;20033;-49
2024/01/03 13:06:49;;;;;;;8.27;5.18;;;;;;;;;;4996621;28;20031;-50
2024/01/03 13:09:14;;;;;;;8.40;4.95;;;;;;;;;;4973860;28;20050;-50
2024/01/03 13:11:40;;;;;;;8.55;6.47;;;;;;;;;;4985291;28;20787;-49
2024/01/03 13:14:05;;;;;;;6.25;4.10;;;;;;;;;;4992338;28;20038;-48
2024/01/03 13:16:31;;;;;;;10.05;5.45;;;;;;;;;;4977591;28;20745;-49
2024/01/03 13:18:56;;;;;;;8.82;5.43;;;;;;;;;;5003402;28;20039;-48
2024/01/03 13:21:21;;;;;;;7.55;4.82;;;;;;;;;;4992531;28;20037;-47
2024/01/03 13:23:47;;;;;;;8.23;5.32;;;;;;;;;;4979148;28;20049;-50
2024/01/03 13:26:13;;;;;;;11.02;6.20;;;;;;;;;;4988042;28;20027;-45
2024/01/03 13:28:41;;;;;;;11.27;5.05;;;;;;;;;;4994504;28;20041;-48
2024/01/03 13:31:13;;;;;;;;;;;;;;;;;;4992339;28;20081;-48
2024/01/03 13:33:39;;;;;;;7.22;4.63;;;;;;;;;;4988935;28;19922;-50
2024/01/03 13:36:05;;;;;;;7.57;4.88;;;;;;;;;;4990815;28;20029;-47
2024/01/03 13:38:30;;;;;;;8.68;5.07;;;;;;;;;;4992372;28;20034;-47
2024/01/03 13:40:56;;;;;;;11.70;5.18;;;;;;;;;;4991081;28;20477;-46
2024/01/03 13:43:22;;;;;;;7.15;4.57;;;;;;;;;;4986182;28;20035;-48
2024/01/03 13:45:48;;;;;;;9.85;6.65;;;;;;;;;;4978863;28;20081;-49
2024/01/03 13:48:14;;;;;;;9.25;5.70;;;;;;;;;;4985849;28;20504;-48
2024/01/03 13:50:39;;;;;;;7.90;5.43;;;;;;;;;;4998338;28;20038;-50
2024/01/03 13:53:06;;;;;;;7.78;5.45;;;;;;;;;;4990672;28;20050;-50
2024/01/03 13:55:32;;;;;;;8.35;5.28;;;;;;;;;;4984022;28;20037;-49
2024/01/03 13:57:57;;;;;;;9.57;5.03;;;;;;;;;;4992589;28;20018;-50
2024/01/03 14:00:23;;;;;;;8.65;4.88;;;;;;;;;;4984832;28;20030;-48
2024/01/03 14:02:49;;;;;;;7.57;4.90;;;;;;;;;;4985120;28;20034;-46
2024/01/03 14:05:16;;;;;;;7.28;5.63;;;;;;;;;;4986221;28;20163;-49
2024/01/03 14:07:42;;;;;;;11.05;5.45;;;;;;;;;;4984486;28;20039;-51
2024/01/03 14:10:09;;;;;;;7.90;5.05;;;;;;;;;;4982342;28;20817;-51
2024/01/03 14:12:34;;;;;;;9.82;6.28;;;;;;;;;;4975775;28;20042;-47
2024/01/03 14:15:00;;;;;;;7.45;4.72;;;;;;;;;;4987995;28;20042;-49
2024/01/03 14:17:25;;;;;;;8.73;6.40;;;;;;;;;;4980346;28;20393;-47
2024/01/03 14:19:50;;;;;;;11.48;5.25;;;;;;;;;;4974999;28;20061;-49
2024/01/03 14:22:16;;;;;;;10.40;6.15;;;;;;;;;;4991369;28;20590;-46
2024/01/03 14:24:41;;;;;;;11.52;5.70;;;;;;;;;;4984539;28;20508;-48
2024/01/03 14:27:07;;;;;;;8.52;5.07;;;;;;;;;;4987095;28;20030;-48
2024/01/03 14:29:32;;;;;;;8.23;5.78;;;;;;;;;;4989835;28;20043;-45
2024/01/03 14:31:58;;;;;;;8.25;5.65;;;;;;;;;;4990649;28;20022;-51
2024/01/03 14:34:23;;;;;;;8.52;6.25;;;;;;;;;;4980743;28;20035;-47
2024/01/03 14:37:06;;;;;;;7.18;5.47;;;;;;;;;;4985421;28;20038;-50
2024/01/03 14:39:36;;;;;;;9.23;5.93;;;;;;;;;;4992461;28;20038;-49